Time;durP1;ratioP1;P1;durP2;ratioP2;P2;SDS_P1;SDS_P2;PMS_P1;PMS_P2;Temp;Humidity;BMP_temperature;BMP_pressure;BME280_temperature;BME280_humidity;BME280_pressure;Samples;Min_cycle;Max_cycle;Signal;HPM_P1;HPM_P2
2022/03/16 00:01:03;;;;;;;3.33;1.70;;;17.10;60.60;;;;;;10375234;28;20042;-63
2022/03/16 00:06:04;;;;;;;3.35;2.10;;;17.30;60.00;;;;;;10371774;28;20117;-65
2022/03/16 00:11:05;;;;;;;6.05;2.17;;;17.30;60.10;;;;;;10371128;28;20394;-64
2022/03/16 00:16:05;;;;;;;4.68;2.58;;;17.40;59.90;;;;;;10375599;28;20145;-64
2022/03/16 00:21:07;;;;;;;3.63;2.42;;;17.30;60.00;;;;;;10383359;28;20545;-64
2022/03/16 00:26:08;;;;;;;3.72;2.22;;;17.20;60.20;;;;;;10397235;28;20052;-63
2022/03/16 00:31:08;;;;;;;4.95;2.55;;;17.30;59.90;;;;;;10414904;28;20033;-64
2022/03/16 00:36:10;;;;;;;3.17;1.85;;;17.30;59.80;;;;;;10384251;28;20081;-64
2022/03/16 00:41:11;;;;;;;5.20;2.30;;;17.20;59.90;;;;;;10381877;28;20393;-64
2022/03/16 00:46:12;;;;;;;3.28;2.53;;;17.20;59.90;;;;;;10374724;28;20397;-63
2022/03/16 00:51:13;;;;;;;3.33;2.35;;;17.20;59.60;;;;;;10390851;28;20038;-63
2022/03/16 00:56:14;;;;;;;3.33;2.00;;;17.30;59.40;;;;;;10382970;28;20036;-64
2022/03/16 01:01:14;;;;;;;4.13;2.25;;;17.30;59.00;;;;;;10382720;28;20485;-64
2022/03/16 01:06:15;;;;;;;2.67;1.88;;;17.30;59.00;;;;;;10414746;28;20061;-64
2022/03/16 01:11:16;;;;;;;3.13;1.80;;;17.30;59.20;;;;;;10370045;28;20026;-64
2022/03/16 01:16:17;;;;;;;3.03;2.10;;;17.30;59.10;;;;;;10405395;28;20069;-64
2022/03/16 01:21:17;;;;;;;3.45;1.83;;;17.30;59.00;;;;;;10339456;28;20034;-64
2022/03/16 01:26:18;;;;;;;3.90;1.92;;;17.30;59.10;;;;;;10393933;28;20088;-64
2022/03/16 01:31:20;;;;;;;4.13;2.15;;;17.20;59.00;;;;;;10406883;28;20066;-64
2022/03/16 01:36:20;;;;;;;2.83;1.90;;;17.30;59.00;;;;;;10368497;28;20470;-64
2022/03/16 01:41:21;;;;;;;3.65;1.98;;;17.20;59.00;;;;;;10384843;28;20037;-64
2022/03/16 01:46:23;;;;;;;2.42;1.90;;;17.20;59.00;;;;;;10405284;28;20072;-64
2022/03/16 01:51:24;;;;;;;4.20;1.85;;;17.30;58.70;;;;;;10381027;28;20133;-64
2022/03/16 01:56:25;;;;;;;3.42;2.08;;;17.30;58.40;;;;;;10374555;28;20026;-64
2022/03/16 02:01:25;;;;;;;2.53;2.00;;;17.40;58.90;;;;;;10367386;28;20025;-64
2022/03/16 02:06:27;;;;;;;3.97;1.77;;;17.40;58.10;;;;;;10350698;28;20175;-64
2022/03/16 02:11:27;;;;;;;2.83;1.95;;;17.30;58.30;;;;;;10412349;28;20034;-64
2022/03/16 02:16:34;;;;;;;2.65;2.20;;;17.30;58.30;;;;;;10412614;28;20029;-64
2022/03/16 02:21:37;;;;;;;3.28;2.20;;;17.30;58.10;;;;;;10384756;28;20504;-64
2022/03/16 02:26:39;;;;;;;2.45;1.55;;;17.30;58.10;;;;;;10388361;28;20125;-64
2022/03/16 02:31:40;;;;;;;3.10;1.88;;;17.20;58.30;;;;;;10389111;28;20135;-63
2022/03/16 02:36:41;;;;;;;3.15;2.00;;;17.30;58.00;;;;;;10389655;28;20045;-64
2022/03/16 02:41:47;;;;;;;2.90;2.08;;;17.30;57.90;;;;;;10419402;28;20162;-64
2022/03/16 02:46:48;;;;;;;2.38;1.60;;;17.40;57.70;;;;;;10377790;28;20104;-64
2022/03/16 02:51:49;;;;;;;3.15;2.28;;;17.40;57.60;;;;;;10381576;28;20107;-64
2022/03/16 02:56:49;;;;;;;2.55;1.73;;;17.30;57.70;;;;;;10344957;28;20026;-64
2022/03/16 03:01:50;;;;;;;3.28;2.10;;;17.40;57.50;;;;;;10377384;28;20033;-64
2022/03/16 03:06:51;;;;;;;4.22;2.13;;;17.40;57.50;;;;;;10388598;28;20061;-64
2022/03/16 03:11:52;;;;;;;2.38;1.83;;;17.30;57.60;;;;;;10388095;28;20060;-64
2022/03/16 03:16:53;;;;;;;2.65;2.30;;;17.30;57.40;;;;;;10384813;28;20500;-64
2022/03/16 03:21:53;;;;;;;2.53;2.05;;;17.30;57.50;;;;;;10375212;28;20069;-64
2022/03/16 03:26:54;;;;;;;4.07;2.05;;;17.20;57.50;;;;;;10400567;28;20435;-64
2022/03/16 03:31:55;;;;;;;2.60;2.03;;;17.30;57.30;;;;;;10387275;28;20466;-64
2022/03/16 03:36:55;;;;;;;3.13;1.70;;;17.30;57.20;;;;;;10368660;28;20482;-64
2022/03/16 03:41:56;;;;;;;2.28;1.75;;;17.40;56.90;;;;;;10385812;28;20419;-64
2022/03/16 03:46:57;;;;;;;2.78;1.80;;;17.40;56.90;;;;;;10376635;28;20112;-64
2022/03/16 03:51:57;;;;;;;4.32;1.83;;;17.30;57.20;;;;;;10377100;28;20495;-64
2022/03/16 03:56:59;;;;;;;3.50;2.03;;;17.20;57.10;;;;;;10376432;28;20453;-64
2022/03/16 04:01:59;;;;;;;3.47;2.25;;;17.30;56.90;;;;;;10376264;28;20497;-64
2022/03/16 04:07:00;;;;;;;3.13;2.05;;;17.40;56.80;;;;;;10414497;28;20033;-64
2022/03/16 04:12:01;;;;;;;3.15;2.25;;;17.30;56.80;;;;;;10385925;28;20037;-64
2022/03/16 04:17:01;;;;;;;2.55;2.08;;;17.30;56.90;;;;;;10384236;28;20048;-64
2022/03/16 04:22:02;;;;;;;2.75;2.17;;;17.30;57.00;;;;;;10416575;28;20037;-64
2022/03/16 04:27:03;;;;;;;3.05;2.53;;;17.30;56.60;;;;;;10357209;28;20064;-64
2022/03/16 04:32:05;;;;;;;3.85;2.60;;;17.40;56.50;;;;;;10375109;28;20112;-64
2022/03/16 04:37:06;;;;;;;3.42;2.05;;;17.40;56.50;;;;;;10379594;28;20421;-64
2022/03/16 04:42:07;;;;;;;2.78;2.10;;;17.40;56.60;;;;;;10380807;28;20064;-64
2022/03/16 04:47:08;;;;;;;3.35;2.10;;;17.30;56.60;;;;;;10394530;28;20382;-64
2022/03/16 04:52:08;;;;;;;2.60;1.90;;;17.40;56.40;;;;;;10372003;28;20033;-64
2022/03/16 04:57:09;;;;;;;3.17;2.10;;;17.40;56.70;;;;;;10382004;28;20116;-64
2022/03/16 05:02:10;;;;;;;2.40;1.88;;;17.40;56.60;;;;;;10380309;28;20064;-64
2022/03/16 05:07:11;;;;;;;2.28;1.40;;;17.40;56.60;;;;;;10415044;28;20048;-64
2022/03/16 05:12:11;;;;;;;3.38;2.00;;;17.40;56.80;;;;;;10400434;28;20045;-64
2022/03/16 05:17:12;;;;;;;3.15;1.75;;;17.40;56.70;;;;;;10371429;28;20100;-64
2022/03/16 05:22:12;;;;;;;2.70;1.55;;;17.40;56.90;;;;;;10370996;28;20116;-64
2022/03/16 05:27:13;;;;;;;2.97;1.40;;;17.40;56.90;;;;;;10376379;28;20081;-64
2022/03/16 05:32:15;;;;;;;4.43;1.67;;;17.40;56.90;;;;;;10385136;28;20084;-64
2022/03/16 05:37:15;;;;;;;2.70;1.65;;;17.40;57.00;;;;;;10365204;28;20105;-65
2022/03/16 05:42:16;;;;;;;2.65;1.83;;;17.40;56.90;;;;;;10369949;28;20435;-66
2022/03/16 05:47:17;;;;;;;2.65;1.50;;;17.50;57.00;;;;;;10367068;28;20033;-66
2022/03/16 05:52:21;;;;;;;1.60;1.25;;;17.40;57.10;;;;;;10379660;28;20068;-66
2022/03/16 05:57:22;;;;;;;3.00;1.52;;;17.50;56.90;;;;;;10367814;28;20109;-65
2022/03/16 06:02:23;;;;;;;2.88;1.38;;;17.50;57.00;;;;;;10373659;28;20057;-64
2022/03/16 06:07:24;;;;;;;2.33;1.42;;;17.40;57.30;;;;;;10369197;28;20128;-63
2022/03/16 06:12:24;;;;;;;3.88;1.60;;;17.30;57.70;;;;;;10386863;28;20103;-64
2022/03/16 06:17:25;;;;;;;6.60;1.70;;;17.40;57.90;;;;;;10389132;28;20059;-66
2022/03/16 06:22:26;;;;;;;5.90;2.45;;;17.30;59.00;;;;;;10381943;28;20378;-66
2022/03/16 06:27:26;;;;;;;10.43;2.65;;;17.20;60.10;;;;;;10381126;28;20111;-66
2022/03/16 06:32:28;;;;;;;8.63;2.58;;;17.30;59.90;;;;;;10386417;28;20069;-64
2022/03/16 06:37:28;;;;;;;4.25;1.70;;;17.40;60.40;;;;;;10354014;28;20038;-67
2022/03/16 06:42:29;;;;;;;8.40;2.50;;;17.30;60.40;;;;;;10370346;28;20037;-62
2022/03/16 06:47:29;;;;;;;10.85;2.45;;;17.30;60.70;;;;;;10381635;28;20113;-62
2022/03/16 06:52:30;;;;;;;13.15;2.55;;;17.20;61.40;;;;;;10373439;28;20046;-67
2022/03/16 06:57:31;;;;;;;18.45;3.83;;;17.10;60.70;;;;;;10376195;28;20025;-66
2022/03/16 07:02:32;;;;;;;51.03;7.55;;;17.20;61.20;;;;;;10403192;28;20049;-70
2022/03/16 07:07:32;;;;;;;37.72;5.93;;;17.10;62.00;;;;;;10381700;28;20029;-70
2022/03/16 07:12:33;;;;;;;25.92;4.15;;;16.90;62.10;;;;;;10395154;28;20056;-64
2022/03/16 07:17:34;;;;;;;18.23;4.00;;;16.90;62.00;;;;;;10368335;28;20127;-68
2022/03/16 07:22:35;;;;;;;13.00;4.00;;;16.90;61.40;;;;;;10395752;28;20513;-69
2022/03/16 07:27:40;;;;;;;21.02;8.27;;;16.80;61.30;;;;;;10365849;28;20069;-68
2022/03/16 07:32:41;;;;;;;23.17;5.43;;;16.70;61.20;;;;;;10401571;28;20061;-68
2022/03/16 07:37:42;;;;;;;16.05;5.72;;;16.70;61.20;;;;;;10377821;28;20516;-68
2022/03/16 07:42:47;;;;;;;11.77;4.25;;;16.60;61.10;;;;;;10391708;28;20033;-71
2022/03/16 07:47:50;;;;;;;15.85;4.38;;;16.60;61.10;;;;;;10378848;28;20034;-68
2022/03/16 07:52:50;;;;;;;12.25;3.55;;;16.70;60.90;;;;;;10380519;28;20033;-68
2022/03/16 07:57:52;;;;;;;23.48;5.45;;;16.80;60.70;;;;;;10400615;28;20036;-69
2022/03/16 08:02:54;;;;;;;11.18;4.07;;;16.80;60.80;;;;;;10396402;28;20037;-69
2022/03/16 08:07:55;;;;;;;15.48;4.53;;;16.70;61.50;;;;;;10369644;28;20045;-63
2022/03/16 08:12:55;;;;;;;10.93;3.60;;;16.70;62.10;;;;;;10376350;28;20030;-68
2022/03/16 08:17:56;;;;;;;15.00;4.63;;;16.70;61.30;;;;;;10383052;28;20087;-65
2022/03/16 08:22:57;;;;;;;16.10;3.15;;;16.70;61.40;;;;;;10375052;28;20072;-68
2022/03/16 08:27:59;;;;;;;15.18;3.88;;;16.70;61.60;;;;;;10377158;28;20049;-65
2022/03/16 08:33:01;;;;;;;12.77;3.60;;;16.70;62.00;;;;;;10384934;28;20045;-65
2022/03/16 08:38:01;;;;;;;17.00;4.25;;;16.70;61.20;;;;;;10392316;28;20030;-65
2022/03/16 08:43:03;;;;;;;8.18;3.30;;;16.70;61.20;;;;;;10388400;28;20049;-65
2022/03/16 08:48:04;;;;;;;11.30;3.60;;;16.60;61.20;;;;;;10368393;28;20022;-65
2022/03/16 08:53:05;;;;;;;8.10;3.42;;;16.60;61.20;;;;;;10388788;28;20073;-67
2022/03/16 08:58:06;;;;;;;13.88;3.47;;;16.60;61.20;;;;;;10392243;28;20030;-65
2022/03/16 09:03:08;;;;;;;10.93;3.28;;;16.50;61.10;;;;;;10375312;28;20417;-66
2022/03/16 09:08:09;;;;;;;11.20;3.17;;;16.50;61.10;;;;;;10405197;28;20029;-64
2022/03/16 09:13:10;;;;;;;7.18;3.58;;;16.60;61.10;;;;;;10408469;28;20116;-65
2022/03/16 09:18:11;;;;;;;6.97;2.97;;;16.60;61.00;;;;;;10395706;28;20177;-66
2022/03/16 09:23:12;;;;;;;7.10;3.08;;;16.50;61.00;;;;;;10381135;28;20375;-65
2022/03/16 09:28:13;;;;;;;4.88;2.75;;;16.60;61.10;;;;;;10402314;28;20080;-66
2022/03/16 09:33:13;;;;;;;8.75;3.67;;;16.60;61.00;;;;;;10383393;28;20086;-65
2022/03/16 09:38:16;;;;;;;7.32;3.63;;;16.60;61.00;;;;;;10395167;28;20061;-65
2022/03/16 09:43:19;;;;;;;6.15;2.72;;;16.60;60.90;;;;;;10379293;28;20025;-65
2022/03/16 09:48:26;;;;;;;8.73;3.38;;;16.70;60.80;;;;;;10382735;28;20029;-64
2022/03/16 09:53:26;;;;;;;5.22;2.42;;;16.70;60.70;;;;;;10398120;28;20029;-66
2022/03/16 09:58:27;;;;;;;5.03;2.63;;;16.80;60.70;;;;;;10364270;28;20046;-65
2022/03/16 10:03:28;;;;;;;4.03;2.40;;;16.80;60.60;;;;;;10399435;28;20466;-65
2022/03/16 10:08:32;;;;;;;7.55;2.63;;;16.80;60.50;;;;;;10411136;28;20064;-64
2022/03/16 10:13:32;;;;;;;6.50;2.47;;;16.80;60.40;;;;;;10378473;28;20034;-65
2022/03/16 10:18:36;;;;;;;5.38;2.50;;;16.90;60.30;;;;;;10380418;28;20116;-65
2022/03/16 10:23:37;;;;;;;10.27;3.78;;;16.90;60.10;;;;;;10381353;28;20063;-65
2022/03/16 10:28:38;;;;;;;6.45;2.30;;;16.90;60.10;;;;;;10382794;28;20076;-65
2022/03/16 10:33:54;;;;;;;7.43;2.88;;;16.90;60.20;;;;;;10373745;28;20077;-64
2022/03/16 10:38:58;;;;;;;9.45;2.63;;;16.90;60.10;;;;;;10386685;28;20127;-64
2022/03/16 10:49:21;;;;;;;6.50;2.80;;;17.00;60.10;;;;;;10385390;28;20378;-63
2022/03/16 10:54:22;;;;;;;6.68;2.45;;;17.00;59.90;;;;;;10381725;28;20098;-63
2022/03/16 10:59:29;;;;;;;4.85;2.25;;;17.00;59.80;;;;;;10389595;28;20052;-64
2022/03/16 11:04:34;;;;;;;6.65;2.70;;;17.00;59.80;;;;;;10416852;28;20025;-64
2022/03/16 11:09:37;;;;;;;8.73;2.75;;;17.10;59.80;;;;;;10398205;28;20088;-64
2022/03/16 11:14:38;;;;;;;5.13;2.95;;;17.10;59.80;;;;;;10382103;28;20087;-62
2022/03/16 11:19:44;;;;;;;7.50;3.45;;;17.10;59.60;;;;;;10366020;28;20528;-64
2022/03/16 11:25:19;;;;;;;7.68;2.40;;;17.20;59.70;;;;;;10378550;28;20108;-62
2022/03/16 11:30:33;;;;;;;9.20;2.72;;;17.30;59.90;;;;;;10369812;28;20026;-62
2022/03/16 11:35:50;;;;;;;6.53;2.17;;;17.30;60.00;;;;;;10386866;28;20034;-59
2022/03/16 11:40:52;;;;;;;6.88;3.00;;;17.40;60.10;;;;;;10359447;28;20034;-61
2022/03/16 11:45:55;;;;;;;9.07;2.38;;;17.40;60.00;;;;;;10372160;28;20062;-63
2022/03/16 11:51:13;;;;;;;11.95;3.03;;;17.30;60.20;;;;;;10377968;28;20042;-62
2022/03/16 11:56:42;;;;;;;7.65;2.70;;;17.40;60.70;;;;;;10379101;28;20030;-62
2022/03/16 12:01:52;;;;;;;11.18;3.20;;;17.40;60.50;;;;;;10391896;28;20048;-67
2022/03/16 12:07:02;;;;;;;13.73;2.92;;;17.30;61.20;;;;;;10396803;28;20112;-65
2022/03/16 12:18:07;;;;;;;12.35;3.88;;;17.40;61.30;;;;;;10391695;28;20037;-66
2022/03/16 12:23:10;;;;;;;14.68;3.22;;;17.40;61.50;;;;;;10375353;28;20444;-64
2022/03/16 12:33:49;;;;;;;10.85;3.33;;;17.30;61.80;;;;;;10387217;28;20030;-65
2022/03/16 12:38:55;;;;;;;15.68;5.57;;;17.30;61.80;;;;;;10375106;28;20034;-65
2022/03/16 12:43:58;;;;;;;10.43;2.95;;;17.20;61.90;;;;;;10412342;28;20072;-64
2022/03/16 12:49:13;;;;;;;16.42;4.50;;;17.20;61.90;;;;;;10376872;28;20041;-63
2022/03/16 12:54:41;;;;;;;18.10;3.85;;;17.20;61.70;;;;;;10381628;28;20034;-62
2022/03/16 12:59:56;;;;;;;10.27;3.55;;;17.10;61.70;;;;;;10370314;28;20056;-62
2022/03/16 13:04:57;;;;;;;13.45;3.38;;;17.00;61.80;;;;;;10407150;28;20080;-62
2022/03/16 13:10:00;;;;;;;10.02;2.70;;;17.00;62.00;;;;;;10414190;28;20044;-62
2022/03/16 13:15:02;;;;;;;12.63;3.17;;;16.90;62.00;;;;;;10389930;28;20466;-62
2022/03/16 13:20:04;;;;;;;16.73;3.90;;;16.90;62.10;;;;;;10412696;28;20033;-62
2022/03/16 13:25:07;;;;;;;19.92;3.78;;;16.90;61.90;;;;;;10372818;28;20060;-59
2022/03/16 13:30:19;;;;;;;17.88;4.00;;;16.90;62.00;;;;;;10386807;28;20084;-62
2022/03/16 13:35:26;;;;;;;34.50;5.72;;;16.90;62.00;;;;;;10395767;28;20028;-60
2022/03/16 13:40:38;;;;;;;31.20;7.03;;;17.10;63.10;;;;;;10387410;28;20046;-62
2022/03/16 13:45:44;;;;;;;41.70;9.20;;;17.10;63.20;;;;;;10400596;28;20183;-60
2022/03/16 13:50:55;;;;;;;62.88;10.85;;;17.10;64.10;;;;;;10385222;28;20029;-62
2022/03/16 13:56:11;;;;;;;60.83;9.48;;;17.10;63.80;;;;;;10373395;28;20061;-60
2022/03/16 14:01:20;;;;;;;53.00;10.60;;;17.10;65.90;;;;;;10371715;28;20045;-60
2022/03/16 14:06:21;;;;;;;34.80;9.65;;;17.10;65.40;;;;;;10354259;28;20021;-62
2022/03/16 14:11:33;;;;;;;58.00;10.40;;;17.10;66.40;;;;;;10385575;28;20029;-61
2022/03/16 14:16:35;;;;;;;62.10;10.45;;;17.20;66.80;;;;;;10383339;28;20038;-62
2022/03/16 14:21:37;;;;;;;56.63;10.05;;;17.30;66.00;;;;;;10417499;28;20021;-61
2022/03/16 14:26:40;;;;;;;64.45;13.07;;;17.30;66.70;;;;;;10419820;28;20412;-60
2022/03/16 14:31:43;;;;;;;58.55;13.20;;;17.30;65.80;;;;;;10389348;28;20039;-62
2022/03/16 14:36:43;;;;;;;57.17;12.02;;;17.30;66.10;;;;;;10407829;28;20112;-61
2022/03/16 14:41:44;;;;;;;52.85;10.57;;;17.50;66.50;;;;;;10365473;28;20048;-63
2022/03/16 14:46:45;;;;;;;52.08;12.95;;;17.50;66.10;;;;;;10392479;28;20116;-59
2022/03/16 14:51:45;;;;;;;48.47;10.35;;;17.50;66.50;;;;;;10391917;28;20057;-68
2022/03/16 14:56:46;;;;;;;43.40;9.10;;;17.50;66.70;;;;;;10388798;28;20030;-61
2022/03/16 15:01:47;;;;;;;36.80;9.02;;;17.40;66.00;;;;;;10373739;28;20029;-62
2022/03/16 15:06:48;;;;;;;38.80;8.40;;;17.30;67.00;;;;;;10391877;28;20065;-63
2022/03/16 15:11:48;;;;;;;46.47;9.73;;;17.00;64.90;;;;;;10379958;28;20035;-63
2022/03/16 15:16:49;;;;;;;38.53;9.52;;;16.90;64.80;;;;;;10368078;28;20025;-63
2022/03/16 15:21:50;;;;;;;27.05;8.20;;;16.80;64.80;;;;;;10385788;28;20069;-63
2022/03/16 15:26:50;;;;;;;30.90;9.68;;;17.00;71.20;;;;;;10377824;28;20053;-60
2022/03/16 15:31:52;;;;;;;28.17;6.75;;;17.10;70.30;;;;;;10378971;28;20058;-62
2022/03/16 15:36:52;;;;;;;41.83;10.18;;;17.20;67.50;;;;;;10377708;28;20029;-64
2022/03/16 15:47:13;;;;;;;46.05;9.35;;;17.60;68.50;;;;;;10401034;28;20081;-63
2022/03/16 15:52:14;;;;;;;31.10;11.18;;;17.30;68.00;;;;;;10380385;28;20029;-62
2022/03/16 15:57:14;;;;;;;34.25;8.32;;;17.10;68.60;;;;;;10387711;28;20032;-63
2022/03/16 16:02:15;;;;;;;39.65;11.55;;;17.10;68.50;;;;;;10372358;28;20598;-63
2022/03/16 16:07:17;;;;;;;35.88;11.10;;;17.00;68.40;;;;;;10374744;28;20095;-62
2022/03/16 16:12:18;;;;;;;23.70;8.38;;;17.00;68.50;;;;;;10372820;28;20033;-62
2022/03/16 16:17:18;;;;;;;29.23;7.93;;;16.90;68.30;;;;;;10374639;28;20064;-62
2022/03/16 16:22:20;;;;;;;33.42;9.35;;;16.90;68.20;;;;;;10369423;28;20061;-62
2022/03/16 16:27:22;;;;;;;26.65;7.32;;;16.80;68.10;;;;;;10375064;28;20054;-62
2022/03/16 16:32:23;;;;;;;15.98;5.72;;;16.80;68.00;;;;;;10375282;28;20033;-62
2022/03/16 16:37:25;;;;;;;22.85;7.78;;;16.80;67.90;;;;;;10387094;28;20362;-63
2022/03/16 16:47:45;;;;;;;20.20;6.00;;;16.80;67.80;;;;;;10374383;28;20038;-62
2022/03/16 16:52:46;;;;;;;17.33;6.70;;;16.70;67.70;;;;;;10376516;28;20029;-62
2022/03/16 16:57:48;;;;;;;23.52;5.57;;;16.70;67.60;;;;;;10374734;28;20026;-62
2022/03/16 17:02:52;;;;;;;18.95;6.90;;;16.70;67.50;;;;;;10369685;28;20159;-62
2022/03/16 17:08:02;;;;;;;19.13;7.88;;;16.70;67.40;;;;;;10374007;28;20128;-62
2022/03/16 17:13:04;;;;;;;13.68;5.70;;;16.70;67.30;;;;;;10381970;28;20065;-62
2022/03/16 17:18:05;;;;;;;23.27;6.47;;;16.70;67.20;;;;;;10373156;28;20104;-62
2022/03/16 17:23:06;;;;;;;16.90;6.97;;;16.70;67.00;;;;;;10373350;28;20124;-63
2022/03/16 17:28:13;;;;;;;20.92;4.72;;;16.70;66.90;;;;;;10380208;28;20148;-61
2022/03/16 17:33:17;;;;;;;112.80;58.92;;;16.60;66.40;;;;;;10386367;28;20030;-62
2022/03/16 17:38:23;;;;;;;38.40;18.38;;;16.60;65.80;;;;;;10357251;28;20112;-61
2022/03/16 17:48:44;;;;;;;27.00;12.65;;;17.30;68.00;;;;;;10384997;28;20041;-63
2022/03/16 17:53:45;;;;;;;28.00;14.15;;;17.60;65.90;;;;;;10395897;28;20105;-63
2022/03/16 17:58:46;;;;;;;19.75;11.32;;;17.60;66.00;;;;;;10376761;28;20108;-62
2022/03/16 18:03:47;;;;;;;27.73;10.93;;;17.50;66.00;;;;;;10367616;28;20044;-62
2022/03/16 18:08:47;;;;;;;26.65;10.35;;;17.50;66.10;;;;;;10367114;28;20068;-64
2022/03/16 18:13:48;;;;;;;20.35;10.57;;;17.50;66.10;;;;;;10373298;28;20105;-65
2022/03/16 18:18:51;;;;;;;28.48;13.52;;;17.30;66.40;;;;;;10392951;28;20062;-65
2022/03/16 18:23:52;;;;;;;23.55;10.70;;;17.30;66.90;;;;;;10390044;28;20462;-65
2022/03/16 18:28:56;;;;;;;29.52;11.27;;;17.20;67.00;;;;;;10386117;28;20125;-64
2022/03/16 18:33:57;;;;;;;19.35;10.45;;;17.10;67.10;;;;;;10365030;28;20107;-62
2022/03/16 18:38:58;;;;;;;28.13;9.88;;;17.00;67.20;;;;;;10382429;28;20033;-62
2022/03/16 18:43:58;;;;;;;25.30;11.82;;;17.00;67.20;;;;;;10377213;28;20379;-61
2022/03/16 18:48:59;;;;;;;19.67;9.60;;;16.90;67.30;;;;;;10387429;28;20117;-62
2022/03/16 18:54:00;;;;;;;23.08;9.30;;;16.90;67.40;;;;;;10388824;28;20217;-61
2022/03/16 18:59:00;;;;;;;24.13;10.55;;;16.90;67.40;;;;;;10385067;28;20496;-61
2022/03/16 19:04:01;;;;;;;22.27;9.00;;;16.90;67.40;;;;;;10378491;28;20124;-60
2022/03/16 19:09:02;;;;;;;16.90;8.82;;;16.90;67.40;;;;;;10375127;28;20044;-61
2022/03/16 19:14:02;;;;;;;20.70;8.30;;;16.90;67.40;;;;;;10386216;28;20032;-61
2022/03/16 19:19:03;;;;;;;16.27;8.57;;;16.90;67.40;;;;;;10394556;28;20117;-61
2022/03/16 19:24:04;;;;;;;17.17;8.25;;;16.90;67.40;;;;;;10380902;28;20495;-61
2022/03/16 19:29:05;;;;;;;18.50;7.97;;;16.90;67.50;;;;;;10396735;28;20037;-62
2022/03/16 19:34:07;;;;;;;15.55;6.97;;;16.90;67.50;;;;;;10386681;28;20075;-62
2022/03/16 19:39:09;;;;;;;15.32;8.32;;;16.80;67.40;;;;;;10363194;28;20037;-61
2022/03/16 19:44:10;;;;;;;16.67;8.23;;;16.80;67.30;;;;;;10385943;28;20029;-61
2022/03/16 19:49:13;;;;;;;13.27;8.18;;;16.80;67.30;;;;;;10382116;28;20034;-62
2022/03/16 19:54:13;;;;;;;16.60;7.68;;;16.80;67.30;;;;;;10385124;28;20022;-62
2022/03/16 19:59:14;;;;;;;14.13;6.95;;;16.80;67.20;;;;;;10398035;28;20116;-61
2022/03/16 20:04:21;;;;;;;17.92;7.57;;;16.80;67.20;;;;;;10400480;28;20033;-61
2022/03/16 20:09:22;;;;;;;13.65;6.60;;;16.80;67.30;;;;;;10377800;28;20033;-62
2022/03/16 20:14:23;;;;;;;16.85;6.35;;;16.80;67.30;;;;;;10374651;28;20084;-61
2022/03/16 20:19:24;;;;;;;12.07;6.07;;;16.80;67.30;;;;;;10373300;28;20552;-62
2022/03/16 20:24:26;;;;;;;15.45;6.28;;;16.80;67.30;;;;;;10363727;28;20033;-61
2022/03/16 20:29:26;;;;;;;12.93;6.35;;;16.80;67.40;;;;;;10382885;28;20049;-62
2022/03/16 20:34:27;;;;;;;15.13;7.25;;;16.80;67.10;;;;;;10374123;28;20542;-62
2022/03/16 20:39:28;;;;;;;18.10;6.53;;;16.70;66.80;;;;;;10381706;28;20473;-61
2022/03/16 20:44:29;;;;;;;10.75;4.72;;;16.70;66.80;;;;;;10390567;28;20033;-62
2022/03/16 20:49:29;;;;;;;10.45;5.70;;;16.60;66.70;;;;;;10387621;28;20120;-62
2022/03/16 20:54:30;;;;;;;11.35;5.60;;;16.60;66.60;;;;;;10369527;28;20108;-62
2022/03/16 21:04:50;;;;;;;10.47;7.27;;;16.60;66.90;;;;;;10388717;28;20424;-61
2022/03/16 21:09:52;;;;;;;11.27;5.45;;;16.70;66.60;;;;;;10391271;28;20025;-62
2022/03/16 21:14:52;;;;;;;8.25;4.72;;;16.70;66.20;;;;;;10388820;28;20049;-62
2022/03/16 21:19:54;;;;;;;10.80;5.22;;;16.70;66.60;;;;;;10376484;28;20922;-62
2022/03/16 21:24:55;;;;;;;11.32;5.07;;;16.80;65.90;;;;;;10386390;28;20410;-61
2022/03/16 21:29:57;;;;;;;13.32;5.38;;;16.80;65.80;;;;;;10389991;28;20048;-61
2022/03/16 21:34:57;;;;;;;8.20;4.63;;;16.80;65.70;;;;;;10386169;28;20026;-62
2022/03/16 21:45:31;;;;;;;8.98;4.70;;;17.00;65.00;;;;;;10372684;28;20486;-62
2022/03/16 21:50:37;;;;;;;7.72;4.68;;;17.00;65.10;;;;;;10399934;28;20041;-62
2022/03/16 21:55:38;;;;;;;8.27;4.20;;;17.00;64.80;;;;;;10381723;28;20156;-62
2022/03/16 22:00:50;;;;;;;8.63;4.63;;;17.10;64.50;;;;;;10372686;28;20505;-62
2022/03/16 22:05:51;;;;;;;9.23;4.38;;;17.10;64.50;;;;;;10372661;28;20034;-62
2022/03/16 22:10:53;;;;;;;11.23;4.78;;;17.00;64.50;;;;;;10368313;28;20370;-62
2022/03/16 22:15:53;;;;;;;7.90;4.20;;;17.00;64.70;;;;;;10372625;28;20038;-62
2022/03/16 22:26:14;;;;;;;5.82;3.40;;;17.00;64.30;;;;;;10400240;28;20073;-62
2022/03/16 22:31:16;;;;;;;6.68;3.75;;;17.00;64.20;;;;;;10379400;28;20030;-62
2022/03/16 22:36:20;;;;;;;6.72;3.22;;;17.00;64.30;;;;;;10370097;28;20438;-62
2022/03/16 22:41:24;;;;;;;6.75;5.63;;;17.00;64.40;;;;;;10393339;28;20026;-62
2022/03/16 22:46:24;;;;;;;8.43;3.92;;;17.00;64.20;;;;;;10420749;28;20026;-61
2022/03/16 22:51:25;;;;;;;6.57;3.60;;;17.00;64.10;;;;;;10412243;28;20120;-62
2022/03/16 22:56:26;;;;;;;7.80;3.85;;;17.00;64.20;;;;;;10381479;28;20091;-62
2022/03/16 23:01:27;;;;;;;7.45;4.20;;;16.90;64.20;;;;;;10379375;28;20387;-62
2022/03/16 23:06:27;;;;;;;5.75;3.33;;;17.00;64.10;;;;;;10379267;28;20073;-62
2022/03/16 23:11:28;;;;;;;5.68;3.60;;;17.00;63.90;;;;;;10388035;28;20440;-61
2022/03/16 23:16:29;;;;;;;5.63;3.92;;;17.00;63.80;;;;;;10378781;28;20105;-62
2022/03/16 23:21:29;;;;;;;4.80;2.38;;;17.00;64.00;;;;;;10374479;28;20136;-62
2022/03/16 23:26:30;;;;;;;6.13;3.53;;;17.00;63.90;;;;;;10378558;28;20546;-62
2022/03/16 23:31:31;;;;;;;5.40;3.05;;;17.00;63.70;;;;;;10378135;28;20037;-62
2022/03/16 23:36:32;;;;;;;6.22;4.05;;;17.00;63.60;;;;;;10400280;28;20603;-62
2022/03/16 23:41:33;;;;;;;4.72;3.17;;;17.00;63.70;;;;;;10367177;28;20115;-62
2022/03/16 23:46:34;;;;;;;4.65;3.03;;;17.00;63.80;;;;;;10377564;28;20065;-61
2022/03/16 23:51:35;;;;;;;5.13;3.55;;;17.00;63.70;;;;;;10377084;28;20030;-61
2022/03/16 23:56:35;;;;;;;4.90;3.47;;;17.00;63.50;;;;;;10365988;28;20429;-62
